x

Isle Of Shoals, Nh (iosn3) Weather Station

9:00 - Tue 3rd May 2016 All times are EDT. -4 hours from GMT.

  • Wind
    3mph, 5mph gusts
  • Air Temp 44°f
  • Sea Pressure 1012.9mb
  • Isle Of Shoals, Nh
  • Isle Of Shoals, Nh

More Historic Weather Station data

Upgrade to MSW Pro to gain access to the past 30 days of data for over 8000 Wavebouys and Weather Stations around the globe.

Join Pro

Comparision Forecast

View Surf forecast
   
mar. 05/03 9:00 3 5 mph 1012.9mb 44f
8:00 2
mph
1013.3mb 44f
7:00 5
mph
1013.2mb 44f
6:00  -  1 mph 1013.1mb 44f
5:00 10
mph
1012mb 44f
4:00 8 9 mph 1012.8mb 44f
3:00 7 8 mph 1012.7mb 45f
2:00 10 11 mph 1012.4mb 45f
1:00 13 15 mph 1012.8mb 45f
12:00 15
mph
1012.7mb 45f
lun. 05/02 11:00 14 15 mph 1013.6mb 45f
10:00 13 14 mph 1013.6mb 46f
9:00 18 20 mph 1012.2mb 45f
8:00 14 15 mph 1012.5mb 45f
7:00 21 23 mph 1012.1mb 44f
6:00 22 26 mph 1011.1mb 44f
5:00 21 22 mph 1011.3mb 44f
4:00 13 14 mph 1010.9mb 45f
3:00 11 13 mph 1012.1mb 45f
2:00 15 16 mph 1013.2mb 45f
1:00 9 10 mph 1015.3mb 46f
12:00 14 15 mph 1014.9mb 45f
11:00 16 18 mph 1015.8mb 45f
10:00 16 18 mph 1016.8mb 45f
9:00 17 18 mph 1017.1mb 45f
8:00 20 21 mph 1017.3mb 44f
7:00 17 18 mph 1018.3mb 44f
6:00 16 17 mph 1017.7mb 43f
5:00 17 18 mph 1017.7mb 43f
4:00 13 14 mph 1018.2mb 43f
3:00 11 14 mph 1018.4mb 44f
2:00 11
mph
1018.9mb 44f
1:00 10
mph
1019.6mb 44f
12:00 11 14 mph 1020.2mb 45f
dim. 05/01 11:00 8 9 mph 1021mb 45f
10:00 11 13 mph 1021.3mb 45f
9:00 17 18 mph 1021.3mb 45f
8:00 14
mph
1021.9mb 46f
7:00 10
mph
1022.2mb 45f
6:00 9
mph
1022.5mb 46f
5:00 9 10 mph 1022.6mb 45f
4:00 8
mph
1023.6mb 45f
3:00 10 11 mph 1023.9mb 46f
2:00 9 10 mph 1023.6mb 46f
1:00 16 17 mph 1023.8mb 47f
12:00 18 20 mph 1023.6mb 47f
11:00 20 21 mph 1023.2mb 46f
10:00 16
mph
1023.5mb 46f
9:00 10 11 mph 1023.8mb 46f
8:00 11
mph
1023.5mb 46f
7:00 13 14 mph 1023.5mb 46f
6:00 13 14 mph 1022.9mb 46f
5:00 13 14 mph 1022.7mb 46f
4:00 14 15 mph 1022.9mb 46f
3:00 11
mph
1022.7mb 46f
2:00 11 13 mph 1023mb 46f
1:00 16 17 mph 1023.4mb 47f
12:00 15 16 mph 1023.6mb 47f
sam. 04/30 11:00 17 20 mph 1023mb 47f
10:00 21 22 mph 1023.3mb 47f
9:00 18 21 mph 1023.4mb 46f
8:00 17 18 mph 1023.1mb 46f
7:00 17 20 mph 1022.7mb 46f
6:00 17 18 mph 1022.7mb 46f
5:00 17 21 mph 1022.4mb 46f
4:00 17 20 mph 1022.4mb 46f
3:00 17 18 mph 1021.8mb 46f
2:00 15 16 mph 1022.3mb 46f
1:00 15 16 mph 1022mb 45f
12:00 13
mph
1022.5mb 45f
11:00 9 10 mph 1023mb 45f
10:00 5
mph
1023.8mb 45f
9:00 2 3 mph 1023.4mb 44f
8:00 8 9 mph 1023mb 44f
7:00 10 11 mph 1022.4mb 45f
6:00 11 13 mph 1020.9mb 44f
5:00 14 15 mph 1020.9mb 44f
4:00 14 15 mph 1021.1mb 44f
3:00 11 13 mph 1021.2mb 44f
2:00 13 14 mph 1021.3mb 44f
1:00 13 14 mph 1021mb 44f
12:00 13 14 mph 1021.1mb 44f
ven. 04/29 11:00 13
mph
1020.8mb 44f
10:00 17 20 mph 1020.4mb 44f
9:00 20
mph
1020.4mb 44f
8:00 17 20 mph 1019.9mb 44f
7:00 21 22 mph 1019.6mb 44f
6:00 18 20 mph 1019.8mb 44f
5:00 18 20 mph 1019.7mb 44f